Time;durP1;ratioP1;P1;durP2;ratioP2;P2;SDS_P1;SDS_P2;PMS_P1;PMS_P2;Temp;Humidity;BMP_temperature;BMP_pressure;BME280_temperature;BME280_humidity;BME280_pressure;Samples;Min_cycle;Max_cycle;Signal;HPM_P1;HPM_P2
2023/07/16 00:00:23;;;;;;;4.60;1.40;;;;;;;;;;5103169;27;20087;-67
2023/07/16 00:02:49;;;;;;;5.00;1.55;;;;;;;;;;5099079;27;20051;-58
2023/07/16 00:05:16;;;;;;;9.52;2.03;;;;;;;;;;5098785;27;20044;-65
2023/07/16 00:07:43;;;;;;;6.40;2.28;;;;;;;;;;5087367;27;20056;-66
2023/07/16 00:10:09;;;;;;;5.80;1.73;;;;;;;;;;5099098;27;20180;-61
2023/07/16 00:12:36;;;;;;;3.40;1.55;;;;;;;;;;5097799;27;20048;-66
2023/07/16 00:15:03;;;;;;;10.15;1.95;;;;;;;;;;5100967;27;20183;-62
2023/07/16 00:17:30;;;;;;;7.85;1.80;;;;;;;;;;5097112;27;20048;-65
2023/07/16 00:19:56;;;;;;;7.82;2.00;;;;;;;;;;5094838;27;20059;-66
2023/07/16 00:22:23;;;;;;;5.20;1.45;;;;;;;;;;5104973;28;20062;-66
2023/07/16 00:24:49;;;;;;;9.20;2.03;;;;;;;;;;5099545;27;20100;-63
2023/07/16 00:27:15;;;;;;;6.32;1.88;;;;;;;;;;5100265;27;20056;-66
2023/07/16 00:29:42;;;;;;;7.72;2.15;;;;;;;;;;5096466;27;20047;-64
2023/07/16 00:32:08;;;;;;;10.90;2.15;;;;;;;;;;5101004;27;20135;-59
2023/07/16 00:34:35;;;;;;;8.27;1.90;;;;;;;;;;5089182;27;20513;-66
2023/07/16 00:37:03;;;;;;;10.43;1.88;;;;;;;;;;5113385;27;20053;-62
2023/07/16 00:39:30;;;;;;;6.88;2.33;;;;;;;;;;5108451;27;20382;-67
2023/07/16 00:41:56;;;;;;;3.40;1.70;;;;;;;;;;5100891;27;20113;-65
2023/07/16 00:44:23;;;;;;;11.18;2.10;;;;;;;;;;5094883;28;20131;-67
2023/07/16 00:46:50;;;;;;;8.38;1.80;;;;;;;;;;5100268;27;20567;-59
2023/07/16 00:49:16;;;;;;;5.05;2.00;;;;;;;;;;5112416;27;20087;-67
2023/07/16 00:51:43;;;;;;;5.38;2.20;;;;;;;;;;5102420;27;20056;-65
2023/07/16 00:54:09;;;;;;;9.90;2.88;;;;;;;;;;5101993;27;20078;-63
2023/07/16 00:56:36;;;;;;;4.80;1.77;;;;;;;;;;5097366;27;20543;-62
2023/07/16 00:59:03;;;;;;;6.65;2.25;;;;;;;;;;5095780;27;21040;-62
2023/07/16 01:01:30;;;;;;;8.27;2.42;;;;;;;;;;5102776;28;20052;-65
2023/07/16 01:03:56;;;;;;;7.07;2.05;;;;;;;;;;5088943;28;20048;-66
2023/07/16 01:06:33;;;;;;;7.20;2.42;;;;;;;;;;5097208;27;20992;-62
2023/07/16 01:09:13;;;;;;;4.93;2.35;;;;;;;;;;5103640;27;20052;-66
2023/07/16 01:11:39;;;;;;;3.70;1.90;;;;;;;;;;5085638;27;20118;-67
2023/07/16 01:14:07;;;;;;;4.50;1.90;;;;;;;;;;5090292;28;20063;-65
2023/07/16 01:16:34;;;;;;;10.25;2.30;;;;;;;;;;5085788;28;20052;-65
2023/07/16 01:19:00;;;;;;;4.10;1.92;;;;;;;;;;5098636;27;20048;-62
2023/07/16 01:21:31;;;;;;;5.63;1.85;;;;;;;;;;5105076;27;20082;-63
2023/07/16 01:24:16;;;;;;;11.43;2.33;;;;;;;;;;5111582;27;20123;-66
2023/07/16 01:26:54;;;;;;;9.73;2.85;;;;;;;;;;5084585;27;20079;-62
2023/07/16 01:29:25;;;;;;;4.13;1.77;;;;;;;;;;5096581;27;20048;-65
2023/07/16 01:31:52;;;;;;;5.30;2.45;;;;;;;;;;5097889;27;20052;-66
2023/07/16 01:34:19;;;;;;;10.68;2.85;;;;;;;;;;5098554;28;20053;-67
2023/07/16 01:36:46;;;;;;;10.63;2.47;;;;;;;;;;5086972;27;20052;-65
2023/07/16 01:39:12;;;;;;;6.68;2.55;;;;;;;;;;5110506;27;20584;-66
2023/07/16 01:41:39;;;;;;;4.57;2.47;;;;;;;;;;5107028;27;20079;-63
2023/07/16 01:44:05;;;;;;;7.65;2.58;;;;;;;;;;5102628;28;20052;-66
2023/07/16 01:46:32;;;;;;;10.20;2.60;;;;;;;;;;5103094;28;20056;-62
2023/07/16 01:48:58;;;;;;;10.50;2.35;;;;;;;;;;5086644;27;20052;-64
2023/07/16 01:51:25;;;;;;;10.75;2.42;;;;;;;;;;5099633;28;20091;-66
2023/07/16 01:53:51;;;;;;;7.53;2.50;;;;;;;;;;5091414;27;20056;-65
2023/07/16 01:56:18;;;;;;;12.90;2.78;;;;;;;;;;5100044;27;20535;-66
2023/07/16 01:58:44;;;;;;;7.35;2.65;;;;;;;;;;5092855;27;20083;-64
2023/07/16 02:01:10;;;;;;;6.88;2.60;;;;;;;;;;5097435;28;20510;-65
2023/07/16 02:03:37;;;;;;;9.23;2.42;;;;;;;;;;5102114;27;20399;-66
2023/07/16 02:06:04;;;;;;;7.72;3.03;;;;;;;;;;5102688;27;20048;-66
2023/07/16 02:08:30;;;;;;;12.90;4.38;;;;;;;;;;5085031;27;20230;-66
2023/07/16 02:10:57;;;;;;;8.70;2.88;;;;;;;;;;5098691;27;20048;-62
2023/07/16 02:13:23;;;;;;;8.27;3.20;;;;;;;;;;5101160;28;20059;-66
2023/07/16 02:15:50;;;;;;;6.97;2.63;;;;;;;;;;5096507;28;20058;-65
2023/07/16 02:18:16;;;;;;;6.88;2.70;;;;;;;;;;5091955;27;20053;-66
2023/07/16 02:20:43;;;;;;;14.93;4.13;;;;;;;;;;5087384;28;20083;-66
2023/07/16 02:23:09;;;;;;;7.25;3.13;;;;;;;;;;5102784;28;20067;-56
2023/07/16 02:25:36;;;;;;;13.30;3.88;;;;;;;;;;5098418;27;20514;-65
2023/07/16 02:28:03;;;;;;;7.72;2.92;;;;;;;;;;5091204;27;20134;-62
2023/07/16 02:30:29;;;;;;;7.05;2.97;;;;;;;;;;5100931;28;20084;-67
2023/07/16 02:32:56;;;;;;;8.65;2.85;;;;;;;;;;5101928;27;20113;-62
2023/07/16 02:35:22;;;;;;;8.50;2.97;;;;;;;;;;5088314;27;20048;-66
2023/07/16 02:37:49;;;;;;;13.80;3.15;;;;;;;;;;5083285;27;20140;-66
2023/07/16 02:40:15;;;;;;;7.10;3.10;;;;;;;;;;5093601;27;20086;-63
2023/07/16 02:42:41;;;;;;;11.68;3.92;;;;;;;;;;5083894;28;20324;-66
2023/07/16 02:45:08;;;;;;;6.80;2.97;;;;;;;;;;5099552;28;20513;-66
2023/07/16 02:47:35;;;;;;;15.38;3.25;;;;;;;;;;5090240;27;20055;-67
2023/07/16 02:50:02;;;;;;;8.68;3.80;;;;;;;;;;5098223;28;20055;-66
2023/07/16 02:52:28;;;;;;;6.70;2.85;;;;;;;;;;5087218;28;20903;-64
2023/07/16 02:54:55;;;;;;;7.32;3.30;;;;;;;;;;5099248;27;20436;-60
2023/07/16 02:57:21;;;;;;;5.13;2.60;;;;;;;;;;5094116;27;20562;-66
2023/07/16 02:59:48;;;;;;;9.60;3.35;;;;;;;;;;5099973;28;20147;-65
2023/07/16 03:02:14;;;;;;;9.20;2.78;;;;;;;;;;5089189;28;20576;-63
2023/07/16 03:04:41;;;;;;;9.98;3.13;;;;;;;;;;5103034;28;20056;-60
2023/07/16 03:07:08;;;;;;;12.38;3.03;;;;;;;;;;5094474;27;20169;-66
2023/07/16 03:09:34;;;;;;;10.05;3.45;;;;;;;;;;5100777;27;20536;-66
2023/07/16 03:12:00;;;;;;;8.57;2.85;;;;;;;;;;5085144;28;20159;-59
2023/07/16 03:14:27;;;;;;;10.10;3.22;;;;;;;;;;5101851;27;20142;-64
2023/07/16 03:16:53;;;;;;;10.25;3.55;;;;;;;;;;5101220;27;20052;-66
2023/07/16 03:19:19;;;;;;;8.52;2.80;;;;;;;;;;5103973;28;20044;-63
2023/07/16 03:21:46;;;;;;;10.38;3.35;;;;;;;;;;5090297;28;20117;-64
2023/07/16 03:24:12;;;;;;;5.88;2.60;;;;;;;;;;5117354;27;20205;-65
2023/07/16 03:26:39;;;;;;;13.23;3.83;;;;;;;;;;5104323;27;20056;-58
2023/07/16 03:29:05;;;;;;;7.05;2.58;;;;;;;;;;5098634;28;20048;-65
2023/07/16 03:31:31;;;;;;;7.97;3.00;;;;;;;;;;5105762;28;20051;-66
2023/07/16 03:33:58;;;;;;;7.22;2.88;;;;;;;;;;5103058;27;20223;-63
2023/07/16 03:36:25;;;;;;;8.63;2.85;;;;;;;;;;5092266;27;20106;-63
2023/07/16 03:38:51;;;;;;;5.18;2.58;;;;;;;;;;5099232;27;20543;-67
2023/07/16 03:41:17;;;;;;;6.65;2.63;;;;;;;;;;5105776;28;20090;-65
2023/07/16 03:43:44;;;;;;;6.32;3.10;;;;;;;;;;5104321;27;20056;-61
2023/07/16 03:46:10;;;;;;;7.72;3.03;;;;;;;;;;5105570;27;20135;-65
2023/07/16 03:48:37;;;;;;;4.95;2.50;;;;;;;;;;5091282;27;20066;-66
2023/07/16 03:51:04;;;;;;;7.32;3.15;;;;;;;;;;5110904;27;20078;-62
2023/07/16 03:53:30;;;;;;;9.02;2.92;;;;;;;;;;5088371;28;20051;-65
2023/07/16 03:55:56;;;;;;;12.32;2.80;;;;;;;;;;5104948;28;20484;-66
2023/07/16 03:58:23;;;;;;;8.35;2.85;;;;;;;;;;5072523;27;20612;-60
2023/07/16 04:00:50;;;;;;;7.03;2.83;;;;;;;;;;5099094;27;20075;-66
2023/07/16 04:03:16;;;;;;;9.02;2.42;;;;;;;;;;5096649;27;20059;-65
2023/07/16 04:05:43;;;;;;;6.32;2.90;;;;;;;;;;5100695;27;20086;-65
2023/07/16 04:08:09;;;;;;;6.80;2.83;;;;;;;;;;5103449;27;20180;-61
2023/07/16 04:10:35;;;;;;;8.68;3.13;;;;;;;;;;5105982;27;20127;-62
2023/07/16 04:13:02;;;;;;;5.13;3.03;;;;;;;;;;5098220;28;20131;-66
2023/07/16 04:15:28;;;;;;;5.50;2.47;;;;;;;;;;5099332;28;20614;-61
2023/07/16 04:17:55;;;;;;;10.43;4.35;;;;;;;;;;5104839;27;20485;-65
2023/07/16 04:20:21;;;;;;;10.20;2.85;;;;;;;;;;5102962;27;20087;-66
2023/07/16 04:22:48;;;;;;;5.13;2.50;;;;;;;;;;5095705;27;20048;-60
2023/07/16 04:25:15;;;;;;;6.57;2.90;;;;;;;;;;5102066;28;20599;-65
2023/07/16 04:27:43;;;;;;;7.22;3.85;;;;;;;;;;5092892;28;20076;-67
2023/07/16 04:30:10;;;;;;;7.40;2.67;;;;;;;;;;5086580;27;20131;-62
2023/07/16 04:32:36;;;;;;;11.25;3.38;;;;;;;;;;5100475;27;20052;-64
2023/07/16 04:35:03;;;;;;;7.28;2.80;;;;;;;;;;5094450;27;20510;-65
2023/07/16 04:37:30;;;;;;;9.25;2.80;;;;;;;;;;5101029;27;20060;-64
2023/07/16 04:39:56;;;;;;;7.45;3.28;;;;;;;;;;5096980;27;20506;-65
2023/07/16 04:42:22;;;;;;;7.25;3.33;;;;;;;;;;5103164;27;20525;-62
2023/07/16 04:44:49;;;;;;;5.93;3.03;;;;;;;;;;5088868;28;20062;-65
2023/07/16 04:47:15;;;;;;;8.70;2.88;;;;;;;;;;5094269;27;20079;-65
2023/07/16 04:49:42;;;;;;;10.48;3.47;;;;;;;;;;5105912;27;20075;-66
2023/07/16 04:52:09;;;;;;;7.40;3.17;;;;;;;;;;5105630;27;20101;-55
2023/07/16 04:54:36;;;;;;;11.82;3.38;;;;;;;;;;5103963;28;20052;-64
2023/07/16 04:57:04;;;;;;;8.07;3.53;;;;;;;;;;5104898;28;20067;-65
2023/07/16 04:59:30;;;;;;;5.10;3.25;;;;;;;;;;5100451;27;20079;-66
2023/07/16 05:01:57;;;;;;;9.77;3.38;;;;;;;;;;5103268;28;20139;-66
2023/07/16 05:04:23;;;;;;;8.02;3.55;;;;;;;;;;5106170;27;20066;-63
2023/07/16 05:06:51;;;;;;;6.45;3.08;;;;;;;;;;5117309;27;20700;-65
2023/07/16 05:09:17;;;;;;;8.05;3.28;;;;;;;;;;5100653;27;20524;-66
2023/07/16 05:11:44;;;;;;;6.80;3.67;;;;;;;;;;5104121;28;20930;-63
2023/07/16 05:14:10;;;;;;;7.20;2.78;;;;;;;;;;5098641;27;20490;-65
2023/07/16 05:16:37;;;;;;;5.15;3.20;;;;;;;;;;5098318;28;20060;-66
2023/07/16 05:19:03;;;;;;;6.85;3.45;;;;;;;;;;5100665;27;20560;-62
2023/07/16 05:21:30;;;;;;;7.10;3.17;;;;;;;;;;5091716;28;20048;-59
2023/07/16 05:23:57;;;;;;;6.70;3.33;;;;;;;;;;5085169;28;20052;-61
2023/07/16 05:26:23;;;;;;;8.40;3.38;;;;;;;;;;5086508;28;20613;-67
2023/07/16 05:28:49;;;;;;;7.40;4.03;;;;;;;;;;5107701;27;20547;-63
2023/07/16 05:31:16;;;;;;;7.47;3.40;;;;;;;;;;5100291;27;20056;-65
2023/07/16 05:33:42;;;;;;;6.18;3.00;;;;;;;;;;5100964;28;20048;-66
2023/07/16 05:36:09;;;;;;;8.70;3.22;;;;;;;;;;5099223;28;20486;-60
2023/07/16 05:38:35;;;;;;;8.13;3.58;;;;;;;;;;5099415;27;20571;-62
2023/07/16 05:41:03;;;;;;;7.20;3.45;;;;;;;;;;5097441;27;20051;-63
2023/07/16 05:43:30;;;;;;;9.73;3.63;;;;;;;;;;5094217;27;20052;-66
2023/07/16 05:45:56;;;;;;;7.53;3.60;;;;;;;;;;5098664;28;20052;-66
2023/07/16 05:48:24;;;;;;;5.00;3.08;;;;;;;;;;5106107;27;20218;-64
2023/07/16 05:50:50;;;;;;;7.70;3.88;;;;;;;;;;5100924;27;20062;-63
2023/07/16 05:53:16;;;;;;;10.05;4.10;;;;;;;;;;5104007;27;20185;-65
2023/07/16 05:55:43;;;;;;;10.80;3.88;;;;;;;;;;5072511;28;20053;-65
2023/07/16 05:58:09;;;;;;;9.10;3.88;;;;;;;;;;5093638;27;20129;-62
2023/07/16 06:00:36;;;;;;;9.65;4.32;;;;;;;;;;5103342;27;20793;-65
2023/07/16 06:03:02;;;;;;;9.60;4.05;;;;;;;;;;5080098;28;20465;-65
2023/07/16 06:05:33;;;;;;;6.07;3.67;;;;;;;;;;5109556;27;20064;-65
2023/07/16 06:08:00;;;;;;;11.63;4.43;;;;;;;;;;5098606;27;20060;-65
2023/07/16 06:10:27;;;;;;;7.97;3.63;;;;;;;;;;5093431;27;20528;-65
2023/07/16 06:12:53;;;;;;;10.27;4.05;;;;;;;;;;5085407;27;20600;-59
2023/07/16 06:15:20;;;;;;;6.70;3.47;;;;;;;;;;5092193;27;20527;-63
2023/07/16 06:17:46;;;;;;;8.38;4.00;;;;;;;;;;5095535;27;20056;-64
2023/07/16 06:20:13;;;;;;;17.67;4.63;;;;;;;;;;5095927;27;20067;-60
2023/07/16 06:22:39;;;;;;;11.73;3.80;;;;;;;;;;5104469;27;20137;-63
2023/07/16 06:25:06;;;;;;;16.17;4.65;;;;;;;;;;5095354;27;20522;-65
2023/07/16 06:27:32;;;;;;;7.72;3.53;;;;;;;;;;5118352;27;20129;-64
2023/07/16 06:29:59;;;;;;;6.63;3.88;;;;;;;;;;5095435;28;20056;-66
2023/07/16 06:32:25;;;;;;;9.13;4.18;;;;;;;;;;5084402;28;20059;-63
2023/07/16 06:34:52;;;;;;;7.13;3.42;;;;;;;;;;5088610;28;20498;-67
2023/07/16 06:37:18;;;;;;;9.18;3.80;;;;;;;;;;5099700;27;20083;-62
2023/07/16 06:39:44;;;;;;;10.00;4.50;;;;;;;;;;5118551;27;20138;-63
2023/07/16 06:42:11;;;;;;;10.10;4.03;;;;;;;;;;5102343;27;20540;-65
2023/07/16 06:44:37;;;;;;;8.32;3.78;;;;;;;;;;5097568;27;20052;-63
2023/07/16 06:47:04;;;;;;;5.57;3.72;;;;;;;;;;5103610;28;20878;-63
2023/07/16 06:49:31;;;;;;;9.38;4.03;;;;;;;;;;5091974;27;20549;-66
2023/07/16 06:52:00;;;;;;;10.82;4.93;;;;;;;;;;5098414;27;20052;-65
2023/07/16 06:54:26;;;;;;;10.38;4.55;;;;;;;;;;5093272;27;20135;-59
2023/07/16 06:56:53;;;;;;;8.48;3.95;;;;;;;;;;5118765;27;20056;-66
2023/07/16 06:59:19;;;;;;;8.55;4.22;;;;;;;;;;5106017;27;20052;-64
2023/07/16 07:01:46;;;;;;;6.95;3.63;;;;;;;;;;5098863;27;20102;-66
2023/07/16 07:04:12;;;;;;;9.15;4.38;;;;;;;;;;5091850;27;20147;-61
2023/07/16 07:06:38;;;;;;;9.55;4.22;;;;;;;;;;5094402;27;20052;-56
2023/07/16 07:09:05;;;;;;;8.48;4.28;;;;;;;;;;5105470;28;20139;-63
2023/07/16 07:11:31;;;;;;;8.77;4.28;;;;;;;;;;5110318;27;20081;-63
2023/07/16 07:13:58;;;;;;;10.07;4.18;;;;;;;;;;5119919;27;20044;-65
2023/07/16 07:16:25;;;;;;;7.35;3.83;;;;;;;;;;5104271;27;20052;-60
2023/07/16 07:18:51;;;;;;;9.20;4.35;;;;;;;;;;5105590;27;20056;-64
2023/07/16 07:21:17;;;;;;;12.18;4.05;;;;;;;;;;5104277;27;20048;-62
2023/07/16 07:23:44;;;;;;;8.98;4.00;;;;;;;;;;5097727;27;20175;-66
2023/07/16 07:26:11;;;;;;;8.18;3.70;;;;;;;;;;5104238;27;20711;-66
2023/07/16 07:28:37;;;;;;;12.00;3.90;;;;;;;;;;5091226;27;20049;-60
2023/07/16 07:31:04;;;;;;;11.75;4.00;;;;;;;;;;5100103;27;20052;-64
2023/07/16 07:33:32;;;;;;;7.88;4.03;;;;;;;;;;5098851;27;20056;-62
2023/07/16 07:35:58;;;;;;;6.28;3.58;;;;;;;;;;5100139;27;20130;-71
2023/07/16 07:38:25;;;;;;;8.30;3.83;;;;;;;;;;5105901;27;20052;-65
2023/07/16 07:40:51;;;;;;;8.20;3.45;;;;;;;;;;5104479;27;20133;-66
2023/07/16 07:43:18;;;;;;;12.45;4.03;;;;;;;;;;5103662;27;20135;-73
2023/07/16 07:45:44;;;;;;;8.73;4.03;;;;;;;;;;5095831;27;20201;-63
2023/07/16 07:48:10;;;;;;;7.40;4.13;;;;;;;;;;5104390;27;20056;-63
2023/07/16 07:50:37;;;;;;;13.07;4.10;;;;;;;;;;5104899;27;20101;-66
2023/07/16 07:53:04;;;;;;;8.13;3.92;;;;;;;;;;5100067;27;20040;-68
2023/07/16 07:55:31;;;;;;;12.43;4.95;;;;;;;;;;5102296;27;20048;-64
2023/07/16 07:57:57;;;;;;;10.63;4.32;;;;;;;;;;5106367;27;20176;-64
2023/07/16 08:00:24;;;;;;;14.82;4.60;;;;;;;;;;5092914;27;20053;-67
2023/07/16 08:02:50;;;;;;;27.17;6.03;;;;;;;;;;5103031;27;20105;-64
2023/07/16 08:05:17;;;;;;;7.50;4.00;;;;;;;;;;5104988;27;20085;-63
2023/07/16 08:07:44;;;;;;;6.60;3.97;;;;;;;;;;5106183;27;20091;-63
2023/07/16 08:10:10;;;;;;;7.43;4.00;;;;;;;;;;5118080;27;20052;-66
2023/07/16 08:12:37;;;;;;;8.18;4.25;;;;;;;;;;5107322;27;20601;-63
2023/07/16 08:15:07;;;;;;;7.43;3.78;;;;;;;;;;5104838;27;20052;-64
2023/07/16 08:17:33;;;;;;;9.20;5.15;;;;;;;;;;5101170;27;20044;-55
2023/07/16 08:20:00;;;;;;;7.57;4.30;;;;;;;;;;5103094;27;20052;-67
2023/07/16 08:22:26;;;;;;;11.95;4.15;;;;;;;;;;5094980;27;20052;-63
2023/07/16 08:24:53;;;;;;;9.35;4.10;;;;;;;;;;5095772;27;20063;-66
2023/07/16 08:27:19;;;;;;;8.02;4.07;;;;;;;;;;5096958;27;20140;-67
2023/07/16 08:29:46;;;;;;;11.65;5.40;;;;;;;;;;5097878;27;20055;-65
2023/07/16 08:32:12;;;;;;;9.38;4.32;;;;;;;;;;5110825;27;20052;-67
2023/07/16 08:34:39;;;;;;;10.18;4.20;;;;;;;;;;5103912;27;20056;-65
2023/07/16 08:37:05;;;;;;;6.30;3.65;;;;;;;;;;5095879;28;20090;-68
2023/07/16 08:39:32;;;;;;;10.52;4.35;;;;;;;;;;5078811;27;20508;-62
2023/07/16 08:41:59;;;;;;;12.27;4.65;;;;;;;;;;5105102;27;20056;-66
2023/07/16 08:44:26;;;;;;;14.48;5.22;;;;;;;;;;5103806;27;20052;-66
2023/07/16 08:46:53;;;;;;;8.85;4.55;;;;;;;;;;5106783;27;20401;-67
2023/07/16 08:49:20;;;;;;;8.05;4.43;;;;;;;;;;5107295;27;20115;-66
2023/07/16 08:51:47;;;;;;;8.73;4.40;;;;;;;;;;5103682;27;20068;-66
2023/07/16 08:54:17;;;;;;;12.40;4.90;;;;;;;;;;5095801;27;20131;-66
2023/07/16 08:56:44;;;;;;;7.85;4.10;;;;;;;;;;5092115;27;20056;-61
2023/07/16 08:59:10;;;;;;;9.05;4.47;;;;;;;;;;5111883;27;20082;-65
2023/07/16 09:01:37;;;;;;;10.27;3.90;;;;;;;;;;5105855;27;20117;-67
2023/07/16 09:04:03;;;;;;;8.88;4.53;;;;;;;;;;5102407;27;20048;-61
2023/07/16 09:06:30;;;;;;;9.63;5.22;;;;;;;;;;5101360;27;20130;-62
2023/07/16 09:08:56;;;;;;;8.63;4.50;;;;;;;;;;5098978;27;20102;-63
2023/07/16 09:11:23;;;;;;;9.30;4.13;;;;;;;;;;5093217;27;20047;-66
2023/07/16 09:13:50;;;;;;;8.15;4.68;;;;;;;;;;5085860;27;20555;-63
2023/07/16 09:16:20;;;;;;;10.43;4.50;;;;;;;;;;5097940;27;20056;-69
2023/07/16 09:18:47;;;;;;;6.70;3.90;;;;;;;;;;5099338;27;20539;-66
2023/07/16 09:21:14;;;;;;;9.27;4.68;;;;;;;;;;5087969;27;20106;-68
2023/07/16 09:23:41;;;;;;;8.38;3.83;;;;;;;;;;5092640;27;20056;-67
2023/07/16 09:26:08;;;;;;;10.20;5.38;;;;;;;;;;5100849;27;20139;-65
2023/07/16 09:28:34;;;;;;;10.45;4.65;;;;;;;;;;5071373;28;20054;-61
2023/07/16 09:31:05;;;;;;;10.85;4.25;;;;;;;;;;5102959;27;20147;-68
2023/07/16 09:33:32;;;;;;;8.05;4.35;;;;;;;;;;5100645;27;20076;-66
2023/07/16 09:35:59;;;;;;;10.15;4.28;;;;;;;;;;5102257;27;20060;-69
2023/07/16 09:38:26;;;;;;;8.95;4.15;;;;;;;;;;5103805;27;20105;-65
2023/07/16 09:40:53;;;;;;;9.57;4.57;;;;;;;;;;5100395;27;20544;-69
2023/07/16 09:43:21;;;;;;;5.40;3.80;;;;;;;;;;5102078;27;20052;-65
2023/07/16 09:45:48;;;;;;;6.28;3.78;;;;;;;;;;5098996;27;20048;-69
2023/07/16 09:48:14;;;;;;;5.43;3.70;;;;;;;;;;5101459;27;20082;-66
2023/07/16 09:50:49;;;;;;;7.40;3.75;;;;;;;;;;5088486;27;20084;-73
2023/07/16 09:53:16;;;;;;;7.43;4.10;;;;;;;;;;5088973;27;20890;-69
2023/07/16 09:55:42;;;;;;;10.05;4.38;;;;;;;;;;5089726;27;20056;-73
2023/07/16 09:58:10;;;;;;;7.60;3.83;;;;;;;;;;5090820;27;20053;-63
2023/07/16 10:00:37;;;;;;;9.00;4.20;;;;;;;;;;5091563;27;20051;-69
2023/07/16 10:03:06;;;;;;;7.85;4.28;;;;;;;;;;5091666;27;20063;-66
2023/07/16 10:05:36;;;;;;;9.48;4.22;;;;;;;;;;5089290;27;20410;-64
2023/07/16 10:08:03;;;;;;;5.40;3.67;;;;;;;;;;5089775;27;20510;-68
2023/07/16 10:10:40;;;;;;;8.18;3.92;;;;;;;;;;5089074;27;20052;-68
2023/07/16 10:13:07;;;;;;;10.65;4.35;;;;;;;;;;5092590;27;20064;-69
2023/07/16 10:15:33;;;;;;;11.23;4.45;;;;;;;;;;5089409;27;20052;-64
2023/07/16 10:18:00;;;;;;;6.53;3.60;;;;;;;;;;5097719;27;20056;-65
2023/07/16 10:20:33;;;;;;;5.07;3.50;;;;;;;;;;5097112;27;20048;-67
2023/07/16 10:23:16;;;;;;;8.13;4.45;;;;;;;;;;5082896;27;20130;-68
2023/07/16 10:25:58;;;;;;;7.50;4.07;;;;;;;;;;5102393;27;20048;-68
2023/07/16 10:28:25;;;;;;;6.90;3.60;;;;;;;;;;5102787;27;20056;-70
2023/07/16 10:30:52;;;;;;;9.23;4.00;;;;;;;;;;5100296;27;20044;-66
2023/07/16 10:33:18;;;;;;;7.25;3.88;;;;;;;;;;5093329;27;20462;-67
2023/07/16 10:35:45;;;;;;;7.97;4.47;;;;;;;;;;5108028;27;20052;-65
2023/07/16 10:38:12;;;;;;;8.25;4.10;;;;;;;;;;5100884;27;20052;-66
2023/07/16 10:40:43;;;;;;;9.30;3.85;;;;;;;;;;5098798;27;20518;-68
2023/07/16 10:43:10;;;;;;;25.80;5.15;;;;;;;;;;5104126;27;20052;-67
2023/07/16 10:45:36;;;;;;;10.15;3.40;;;;;;;;;;5105308;28;20076;-71
2023/07/16 10:48:04;;;;;;;9.40;3.58;;;;;;;;;;5092344;27;20052;-71
2023/07/16 10:50:34;;;;;;;6.70;3.58;;;;;;;;;;5097853;27;20149;-72
2023/07/16 10:53:01;;;;;;;7.22;3.80;;;;;;;;;;5106233;28;20086;-74
2023/07/16 10:55:28;;;;;;;7.57;4.05;;;;;;;;;;5106231;27;20056;-72
2023/07/16 10:57:55;;;;;;;8.80;3.58;;;;;;;;;;5105746;28;20177;-68
2023/07/16 11:00:22;;;;;;;8.20;5.18;;;;;;;;;;5103163;28;20131;-69
2023/07/16 11:02:52;;;;;;;5.43;3.50;;;;;;;;;;5106858;27;20509;-71
2023/07/16 11:05:19;;;;;;;8.57;3.45;;;;;;;;;;5106578;27;20052;-71
2023/07/16 11:07:49;;;;;;;6.88;3.30;;;;;;;;;;5110078;27;20149;-73
2023/07/16 11:10:20;;;;;;;7.35;3.83;;;;;;;;;;5104816;28;20063;-71
2023/07/16 11:12:51;;;;;;;7.15;2.83;;;;;;;;;;5098249;27;20507;-67
2023/07/16 11:15:18;;;;;;;14.63;3.67;;;;;;;;;;5096555;27;20052;-61
2023/07/16 11:17:48;;;;;;;8.90;2.92;;;;;;;;;;5101847;27;20145;-68
2023/07/16 11:20:15;;;;;;;5.22;2.75;;;;;;;;;;5097815;27;20759;-69
2023/07/16 11:22:41;;;;;;;4.50;2.83;;;;;;;;;;5102191;27;20078;-73
2023/07/16 11:25:12;;;;;;;7.07;2.70;;;;;;;;;;5119508;27;20598;-68
2023/07/16 11:27:41;;;;;;;4.15;2.50;;;;;;;;;;5094546;27;20062;-71
2023/07/16 11:30:08;;;;;;;3.38;2.35;;;;;;;;;;5104500;27;20060;-70
2023/07/16 11:32:35;;;;;;;7.93;2.35;;;;;;;;;;5102771;27;20061;-73
2023/07/16 11:35:04;;;;;;;5.65;2.58;;;;;;;;;;5106096;27;20048;-70
2023/07/16 11:37:31;;;;;;;3.97;2.67;;;;;;;;;;5100360;27;20060;-66
2023/07/16 11:39:58;;;;;;;5.35;2.40;;;;;;;;;;5100399;27;20059;-67
2023/07/16 11:42:28;;;;;;;6.55;3.05;;;;;;;;;;5102142;27;20051;-72
2023/07/16 11:44:55;;;;;;;5.88;2.80;;;;;;;;;;5098556;27;20138;-65
2023/07/16 11:47:22;;;;;;;9.85;3.45;;;;;;;;;;5096734;27;20052;-68
2023/07/16 11:49:48;;;;;;;5.95;2.85;;;;;;;;;;5099096;27;20056;-71
2023/07/16 11:52:18;;;;;;;3.20;2.05;;;;;;;;;;5101714;27;20192;-68
2023/07/16 11:54:45;;;;;;;4.57;2.53;;;;;;;;;;5101966;27;20634;-69
2023/07/16 11:57:11;;;;;;;3.17;2.15;;;;;;;;;;5100971;27;20056;-67
2023/07/16 11:59:38;;;;;;;4.70;2.28;;;;;;;;;;5100801;27;20056;-70
2023/07/16 12:02:04;;;;;;;2.08;1.88;;;;;;;;;;5089589;27;20048;-65
2023/07/16 12:04:31;;;;;;;4.28;2.30;;;;;;;;;;5107632;27;20159;-71
2023/07/16 12:06:57;;;;;;;2.70;1.80;;;;;;;;;;5102148;27;20091;-67
2023/07/16 12:09:24;;;;;;;1.98;1.50;;;;;;;;;;5102410;27;20048;-70
2023/07/16 12:11:50;;;;;;;4.43;1.80;;;;;;;;;;5098900;27;20334;-67
2023/07/16 12:14:17;;;;;;;6.05;1.85;;;;;;;;;;5102375;27;20091;-67
2023/07/16 12:16:43;;;;;;;5.70;2.03;;;;;;;;;;5104649;27;20048;-74
2023/07/16 12:19:10;;;;;;;4.18;1.30;;;;;;;;;;5102850;27;20458;-70
2023/07/16 12:21:37;;;;;;;3.60;1.58;;;;;;;;;;5095858;27;20052;-68
2023/07/16 12:24:03;;;;;;;3.97;1.42;;;;;;;;;;5101768;27;20125;-72
2023/07/16 12:26:30;;;;;;;3.67;1.42;;;;;;;;;;5103069;27;20054;-72
2023/07/16 12:28:56;;;;;;;8.65;1.73;;;;;;;;;;5102544;27;20106;-69
2023/07/16 12:31:23;;;;;;;4.90;1.50;;;;;;;;;;5096604;27;20157;-66
2023/07/16 12:33:49;;;;;;;3.90;1.50;;;;;;;;;;5102461;28;20056;-68
2023/07/16 12:36:19;;;;;;;3.65;1.63;;;;;;;;;;5094781;27;20052;-67
2023/07/16 12:38:45;;;;;;;3.53;1.70;;;;;;;;;;5101151;27;20130;-71
2023/07/16 12:41:12;;;;;;;6.28;1.40;;;;;;;;;;5097675;28;20053;-69
2023/07/16 12:43:39;;;;;;;2.78;1.50;;;;;;;;;;5101678;28;20052;-64
2023/07/16 12:46:05;;;;;;;5.72;2.03;;;;;;;;;;5101585;27;20052;-67
2023/07/16 12:48:32;;;;;;;4.25;1.55;;;;;;;;;;5095947;27;20490;-69
2023/07/16 12:50:59;;;;;;;4.38;1.45;;;;;;;;;;5104630;27;21416;-70
2023/07/16 12:53:25;;;;;;;4.35;1.77;;;;;;;;;;5100674;27;20499;-70
2023/07/16 12:55:52;;;;;;;4.13;1.63;;;;;;;;;;5099823;27;20618;-66
2023/07/16 12:58:19;;;;;;;3.28;1.25;;;;;;;;;;5100825;27;20071;-70
2023/07/16 13:00:45;;;;;;;6.97;1.95;;;;;;;;;;5095757;27;20136;-72
2023/07/16 13:03:14;;;;;;;4.78;1.77;;;;;;;;;;5087910;28;20152;-69
2023/07/16 13:05:40;;;;;;;5.07;1.98;;;;;;;;;;5099894;27;20065;-67
2023/07/16 13:08:07;;;;;;;3.40;1.83;;;;;;;;;;5098959;27;20145;-71
2023/07/16 13:10:34;;;;;;;4.25;1.33;;;;;;;;;;5100510;27;20056;-65
2023/07/16 13:13:00;;;;;;;4.57;1.85;;;;;;;;;;5101056;27;20348;-67
2023/07/16 13:15:28;;;;;;;3.42;1.60;;;;;;;;;;5096171;27;20206;-67
2023/07/16 13:17:55;;;;;;;6.82;1.38;;;;;;;;;;5096204;27;20509;-66
2023/07/16 13:20:21;;;;;;;4.35;1.55;;;;;;;;;;5098478;27;20052;-69
2023/07/16 13:22:48;;;;;;;6.80;1.52;;;;;;;;;;5106219;27;20086;-64
2023/07/16 13:25:15;;;;;;;3.63;1.48;;;;;;;;;;5087650;27;20056;-64
2023/07/16 13:27:41;;;;;;;4.25;1.25;;;;;;;;;;5099108;27;20060;-65
2023/07/16 13:30:08;;;;;;;5.32;1.67;;;;;;;;;;5097360;27;20506;-65
2023/07/16 13:32:34;;;;;;;3.33;1.15;;;;;;;;;;5101224;27;20051;-65
2023/07/16 13:35:01;;;;;;;5.70;1.40;;;;;;;;;;5094858;27;20149;-62
2023/07/16 13:37:27;;;;;;;5.05;1.13;;;;;;;;;;5101330;27;20568;-64
2023/07/16 13:39:54;;;;;;;4.32;1.25;;;;;;;;;;5101630;27;20048;-64
2023/07/16 13:42:20;;;;;;;2.30;1.15;;;;;;;;;;5094173;27;20063;-61
2023/07/16 13:44:49;;;;;;;2.95;1.35;;;;;;;;;;5100392;27;20048;-62
2023/07/16 13:47:16;;;;;;;2.65;1.25;;;;;;;;;;5101300;27;20058;-65
2023/07/16 13:49:42;;;;;;;4.30;1.30;;;;;;;;;;5102195;27;20138;-63
2023/07/16 13:52:08;;;;;;;7.25;1.20;;;;;;;;;;5098309;27;20087;-63
2023/07/16 13:54:35;;;;;;;5.82;1.30;;;;;;;;;;5100610;27;20547;-65
2023/07/16 13:57:05;;;;;;;3.58;1.50;;;;;;;;;;5102272;27;20246;-65
2023/07/16 13:59:32;;;;;;;6.00;1.23;;;;;;;;;;5099293;27;20052;-61
2023/07/16 14:02:00;;;;;;;4.78;1.30;;;;;;;;;;5090804;27;20436;-65
2023/07/16 14:04:27;;;;;;;5.53;1.00;;;;;;;;;;5099238;27;20498;-63
2023/07/16 14:06:54;;;;;;;5.97;1.48;;;;;;;;;;5101138;28;20079;-65
2023/07/16 14:09:22;;;;;;;2.65;1.20;;;;;;;;;;5096989;27;20330;-65
2023/07/16 14:11:48;;;;;;;4.20;1.58;;;;;;;;;;5102761;27;20052;-61
2023/07/16 14:14:15;;;;;;;2.85;1.00;;;;;;;;;;5099143;27;20151;-64
2023/07/16 14:16:43;;;;;;;2.42;1.00;;;;;;;;;;5093937;27;20061;-64
2023/07/16 14:19:09;;;;;;;4.50;1.40;;;;;;;;;;5097610;27;20052;-62
2023/07/16 14:21:36;;;;;;;3.22;0.90;;;;;;;;;;5099310;27;20106;-63
2023/07/16 14:24:03;;;;;;;4.22;1.08;;;;;;;;;;5099173;27;20083;-61
2023/07/16 14:26:30;;;;;;;6.30;1.15;;;;;;;;;;5089390;27;20056;-65
2023/07/16 14:28:56;;;;;;;5.10;1.45;;;;;;;;;;5101046;27;20056;-64
2023/07/16 14:31:23;;;;;;;3.03;1.10;;;;;;;;;;5092108;28;20125;-62
2023/07/16 14:33:49;;;;;;;4.53;1.08;;;;;;;;;;5098264;27;20052;-65
2023/07/16 14:36:16;;;;;;;3.60;1.40;;;;;;;;;;5092644;27;20114;-66
2023/07/16 14:38:43;;;;;;;5.72;1.45;;;;;;;;;;5101079;27;20055;-65